Hlavní strana
METAR-TAF:

METAR-TAF

Letiště :

Mezinárodní letiště Krále Abda al-Azíze

Džidda, Saúdská Arábie

zeměpisná šířka: 21-42N, zeměpisná délka: 039-11E, výška: 15 m

Aktuální stav počasí

Zpráva byla vytvořena před 33 minutami, v 08:00 UTC
Severoseverozápadní vítr 10 kt
Teplota 27°C
Vlhkost vzduchu 45%
Tlak 1017 hPa
Viditelnost 10 km a více
Skoro jasno ve výšce 3500 ft

METAR: OEJN 100800Z 34010KT 9999 FEW035 27/14 Q1017 NOSIG

Čas: 11:33 (08:33 UTC)

Předpověď počasí

Zpráva byla vytvořena před 3 hodinami a 33 minutami, v 05:00 UTC
Předpověď platná od 10 v 06 UTC do 11 v 12 UTC
Severoseverozápadní vítr 14 kt
Viditelnost 10 km a více
Polojasno ve výšce 4000 ft

TAF: OEJN 100500Z 1006/1112 33014KT 9999 SCT040

Stav a předpovědi počasí z více než 4 000 letišť (zprávy METAR a TAF).

Červené a žluté tečky na mapě představují dostupné meteorologické stanice.

Když kurzor umístíte na tečku, zobrazí se název stanice.

Pak kliknutím zobrazíte stav a předpověď počasí.

Chcete-li změnit mapu, kliknutím na zelené tlačítko se znaménkem +mapu přiblížíte, kliknutím na zelené tlačítko se znaménkem – mapu oddálíte a kliknutím na zelené šipky přejdete na sousední mapy.


METAR-TAF: